sensor_id;sensor_type;location;lat;lon;timestamp;temperature;humidity
17385;DHT22;8810;48.680;8.894;2022-10-22T00:01:48;12.10;99.90
17385;DHT22;8810;48.680;8.894;2022-10-22T00:04:14;12.10;99.90
17385;DHT22;8810;48.680;8.894;2022-10-22T00:06:41;12.10;99.90
17385;DHT22;8810;48.680;8.894;2022-10-22T00:09:09;12.10;99.90
17385;DHT22;8810;48.680;8.894;2022-10-22T00:11:36;12.10;99.90
17385;DHT22;8810;48.680;8.894;2022-10-22T00:14:03;12.10;99.90
17385;DHT22;8810;48.680;8.894;2022-10-22T00:16:31;12.00;99.90
17385;DHT22;8810;48.680;8.894;2022-10-22T00:18:58;12.00;99.90
17385;DHT22;8810;48.680;8.894;2022-10-22T00:21:25;12.10;99.90
17385;DHT22;8810;48.680;8.894;2022-10-22T00:23:53;12.10;99.90
17385;DHT22;8810;48.680;8.894;2022-10-22T00:26:20;12.00;99.90
17385;DHT22;8810;48.680;8.894;2022-10-22T00:28:48;12.00;99.90
17385;DHT22;8810;48.680;8.894;2022-10-22T00:31:14;12.00;99.90
17385;DHT22;8810;48.680;8.894;2022-10-22T00:33:45;12.10;99.90
17385;DHT22;8810;48.680;8.894;2022-10-22T00:36:12;12.10;99.90
17385;DHT22;8810;48.680;8.894;2022-10-22T00:38:39;12.00;99.90
17385;DHT22;8810;48.680;8.894;2022-10-22T00:41:06;12.00;99.90
17385;DHT22;8810;48.680;8.894;2022-10-22T00:43:51;12.00;99.90
17385;DHT22;8810;48.680;8.894;2022-10-22T00:46:18;12.00;99.90
17385;DHT22;8810;48.680;8.894;2022-10-22T00:48:46;12.00;99.90
17385;DHT22;8810;48.680;8.894;2022-10-22T00:51:13;12.00;99.90
17385;DHT22;8810;48.680;8.894;2022-10-22T00:53:42;12.00;99.90
17385;DHT22;8810;48.680;8.894;2022-10-22T00:56:11;12.00;99.90
17385;DHT22;8810;48.680;8.894;2022-10-22T00:58:41;12.00;99.90
17385;DHT22;8810;48.680;8.894;2022-10-22T01:01:13;12.00;99.90
17385;DHT22;8810;48.680;8.894;2022-10-22T01:03:40;12.00;99.90
17385;DHT22;8810;48.680;8.894;2022-10-22T01:06:13;12.00;99.90
17385;DHT22;8810;48.680;8.894;2022-10-22T01:08:52;12.00;99.90
17385;DHT22;8810;48.680;8.894;2022-10-22T01:11:26;12.00;99.90
17385;DHT22;8810;48.680;8.894;2022-10-22T01:13:59;12.00;99.90
17385;DHT22;8810;48.680;8.894;2022-10-22T01:16:34;12.00;99.90
17385;DHT22;8810;48.680;8.894;2022-10-22T01:19:10;12.00;99.90
17385;DHT22;8810;48.680;8.894;2022-10-22T01:21:42;12.00;99.90
17385;DHT22;8810;48.680;8.894;2022-10-22T01:27:14;12.00;99.90
17385;DHT22;8810;48.680;8.894;2022-10-22T01:29:49;12.00;99.90
17385;DHT22;8810;48.680;8.894;2022-10-22T01:32:19;12.00;99.90
17385;DHT22;8810;48.680;8.894;2022-10-22T01:34:49;12.00;99.90
17385;DHT22;8810;48.680;8.894;2022-10-22T01:37:20;12.00;99.90
17385;DHT22;8810;48.680;8.894;2022-10-22T01:39:48;12.00;99.90
17385;DHT22;8810;48.680;8.894;2022-10-22T01:42:16;12.00;99.90
17385;DHT22;8810;48.680;8.894;2022-10-22T01:44:43;12.00;99.90
17385;DHT22;8810;48.680;8.894;2022-10-22T01:47:19;12.00;99.90
17385;DHT22;8810;48.680;8.894;2022-10-22T01:50:10;12.00;99.90
17385;DHT22;8810;48.680;8.894;2022-10-22T01:52:50;12.00;99.90
17385;DHT22;8810;48.680;8.894;2022-10-22T01:55:27;12.00;99.90
17385;DHT22;8810;48.680;8.894;2022-10-22T01:58:05;12.00;99.90
17385;DHT22;8810;48.680;8.894;2022-10-22T02:00:38;12.00;99.90
17385;DHT22;8810;48.680;8.894;2022-10-22T02:03:13;12.10;99.90
17385;DHT22;8810;48.680;8.894;2022-10-22T02:05:44;12.10;99.90
17385;DHT22;8810;48.680;8.894;2022-10-22T02:08:16;12.00;99.90
17385;DHT22;8810;48.680;8.894;2022-10-22T02:10:46;12.10;99.90
17385;DHT22;8810;48.680;8.894;2022-10-22T02:13:16;12.00;99.90
17385;DHT22;8810;48.680;8.894;2022-10-22T02:15:45;12.00;99.90
17385;DHT22;8810;48.680;8.894;2022-10-22T02:18:14;12.00;99.90
17385;DHT22;8810;48.680;8.894;2022-10-22T02:20:42;12.00;99.90
17385;DHT22;8810;48.680;8.894;2022-10-22T02:23:09;12.00;99.90
17385;DHT22;8810;48.680;8.894;2022-10-22T02:25:39;12.10;99.90
17385;DHT22;8810;48.680;8.894;2022-10-22T02:28:11;12.00;99.90
17385;DHT22;8810;48.680;8.894;2022-10-22T02:30:42;12.10;99.90
17385;DHT22;8810;48.680;8.894;2022-10-22T02:33:13;12.00;99.90
17385;DHT22;8810;48.680;8.894;2022-10-22T02:35:42;12.00;99.90
17385;DHT22;8810;48.680;8.894;2022-10-22T02:38:11;12.10;99.90
17385;DHT22;8810;48.680;8.894;2022-10-22T02:40:39;12.00;99.90
17385;DHT22;8810;48.680;8.894;2022-10-22T02:43:06;12.00;99.90
17385;DHT22;8810;48.680;8.894;2022-10-22T02:45:33;12.00;99.90
17385;DHT22;8810;48.680;8.894;2022-10-22T02:48:01;12.00;99.90
17385;DHT22;8810;48.680;8.894;2022-10-22T02:50:29;12.00;99.90
17385;DHT22;8810;48.680;8.894;2022-10-22T02:52:56;12.00;99.90
17385;DHT22;8810;48.680;8.894;2022-10-22T02:55:23;12.10;99.90
17385;DHT22;8810;48.680;8.894;2022-10-22T02:57:50;12.10;99.90
17385;DHT22;8810;48.680;8.894;2022-10-22T03:00:17;12.10;99.90
17385;DHT22;8810;48.680;8.894;2022-10-22T03:02:44;12.00;99.90
17385;DHT22;8810;48.680;8.894;2022-10-22T03:05:11;12.10;99.90
17385;DHT22;8810;48.680;8.894;2022-10-22T03:07:39;12.00;99.90
17385;DHT22;8810;48.680;8.894;2022-10-22T03:10:07;12.00;99.90
17385;DHT22;8810;48.680;8.894;2022-10-22T03:12:34;12.00;99.90
17385;DHT22;8810;48.680;8.894;2022-10-22T03:15:01;12.00;99.90
17385;DHT22;8810;48.680;8.894;2022-10-22T03:17:28;12.10;99.90
17385;DHT22;8810;48.680;8.894;2022-10-22T03:19:54;12.10;99.90
17385;DHT22;8810;48.680;8.894;2022-10-22T03:22:24;12.00;99.90
17385;DHT22;8810;48.680;8.894;2022-10-22T03:24:56;12.00;99.90
17385;DHT22;8810;48.680;8.894;2022-10-22T03:27:25;12.00;99.90
17385;DHT22;8810;48.680;8.894;2022-10-22T03:29:54;12.00;99.90
17385;DHT22;8810;48.680;8.894;2022-10-22T03:32:21;12.00;99.90
17385;DHT22;8810;48.680;8.894;2022-10-22T03:34:47;12.00;99.90
17385;DHT22;8810;48.680;8.894;2022-10-22T03:37:14;12.00;99.90
17385;DHT22;8810;48.680;8.894;2022-10-22T03:39:42;12.00;99.90
17385;DHT22;8810;48.680;8.894;2022-10-22T03:42:10;12.00;99.90
17385;DHT22;8810;48.680;8.894;2022-10-22T03:44:38;12.00;99.90
17385;DHT22;8810;48.680;8.894;2022-10-22T03:47:06;12.00;99.90
17385;DHT22;8810;48.680;8.894;2022-10-22T03:49:32;11.90;99.90
17385;DHT22;8810;48.680;8.894;2022-10-22T03:52:04;11.90;99.90
17385;DHT22;8810;48.680;8.894;2022-10-22T03:54:31;11.90;99.90
17385;DHT22;8810;48.680;8.894;2022-10-22T03:56:58;12.00;99.90
17385;DHT22;8810;48.680;8.894;2022-10-22T03:59:26;12.00;99.90
17385;DHT22;8810;48.680;8.894;2022-10-22T04:01:53;12.00;99.90
17385;DHT22;8810;48.680;8.894;2022-10-22T04:04:20;11.90;99.90
17385;DHT22;8810;48.680;8.894;2022-10-22T04:06:47;11.90;99.90
17385;DHT22;8810;48.680;8.894;2022-10-22T04:09:14;11.90;99.90
17385;DHT22;8810;48.680;8.894;2022-10-22T04:11:40;11.80;99.90
17385;DHT22;8810;48.680;8.894;2022-10-22T04:14:07;11.80;99.90
17385;DHT22;8810;48.680;8.894;2022-10-22T04:16:35;11.80;99.90
17385;DHT22;8810;48.680;8.894;2022-10-22T04:19:02;11.80;99.90
17385;DHT22;8810;48.680;8.894;2022-10-22T04:21:29;11.80;99.90
17385;DHT22;8810;48.680;8.894;2022-10-22T04:23:56;11.80;99.90
17385;DHT22;8810;48.680;8.894;2022-10-22T04:26:22;11.70;99.90
17385;DHT22;8810;48.680;8.894;2022-10-22T04:28:50;11.70;99.90
17385;DHT22;8810;48.680;8.894;2022-10-22T04:31:20;11.70;99.90
17385;DHT22;8810;48.680;8.894;2022-10-22T04:33:51;11.70;99.90
17385;DHT22;8810;48.680;8.894;2022-10-22T04:36:18;11.60;99.90
17385;DHT22;8810;48.680;8.894;2022-10-22T04:38:46;11.60;99.90
17385;DHT22;8810;48.680;8.894;2022-10-22T04:41:15;11.60;99.90
17385;DHT22;8810;48.680;8.894;2022-10-22T04:43:43;11.60;99.90
17385;DHT22;8810;48.680;8.894;2022-10-22T04:46:10;11.60;99.90
17385;DHT22;8810;48.680;8.894;2022-10-22T04:48:38;11.50;99.90
17385;DHT22;8810;48.680;8.894;2022-10-22T04:51:09;11.50;99.90
17385;DHT22;8810;48.680;8.894;2022-10-22T04:53:36;11.50;99.90
17385;DHT22;8810;48.680;8.894;2022-10-22T04:56:08;11.50;99.90
17385;DHT22;8810;48.680;8.894;2022-10-22T04:58:36;11.40;99.90
17385;DHT22;8810;48.680;8.894;2022-10-22T05:01:09;11.40;99.90
17385;DHT22;8810;48.680;8.894;2022-10-22T05:03:36;11.40;99.90
17385;DHT22;8810;48.680;8.894;2022-10-22T05:06:03;11.40;99.90
17385;DHT22;8810;48.680;8.894;2022-10-22T05:08:31;11.40;99.90
17385;DHT22;8810;48.680;8.894;2022-10-22T05:10:58;11.40;99.90
17385;DHT22;8810;48.680;8.894;2022-10-22T05:13:25;11.40;99.90
17385;DHT22;8810;48.680;8.894;2022-10-22T05:15:52;11.40;99.90
17385;DHT22;8810;48.680;8.894;2022-10-22T05:18:18;11.40;99.90
17385;DHT22;8810;48.680;8.894;2022-10-22T05:20:45;11.50;99.90
17385;DHT22;8810;48.680;8.894;2022-10-22T05:23:12;11.50;99.90
17385;DHT22;8810;48.680;8.894;2022-10-22T05:25:40;11.50;99.90
17385;DHT22;8810;48.680;8.894;2022-10-22T05:28:07;11.50;99.90
17385;DHT22;8810;48.680;8.894;2022-10-22T05:30:34;11.50;99.90
17385;DHT22;8810;48.680;8.894;2022-10-22T05:33:00;11.50;99.90
17385;DHT22;8810;48.680;8.894;2022-10-22T05:35:27;11.50;99.90
17385;DHT22;8810;48.680;8.894;2022-10-22T05:37:54;11.50;99.90
17385;DHT22;8810;48.680;8.894;2022-10-22T05:40:21;11.50;99.90
17385;DHT22;8810;48.680;8.894;2022-10-22T05:42:49;11.50;99.90
17385;DHT22;8810;48.680;8.894;2022-10-22T05:45:16;11.50;99.90
17385;DHT22;8810;48.680;8.894;2022-10-22T05:47:43;11.50;99.90
17385;DHT22;8810;48.680;8.894;2022-10-22T05:50:09;11.50;99.90
17385;DHT22;8810;48.680;8.894;2022-10-22T05:52:36;11.50;99.90
17385;DHT22;8810;48.680;8.894;2022-10-22T05:55:04;11.60;99.90
17385;DHT22;8810;48.680;8.894;2022-10-22T05:57:31;11.50;99.90
17385;DHT22;8810;48.680;8.894;2022-10-22T05:59:59;11.50;99.90
17385;DHT22;8810;48.680;8.894;2022-10-22T06:02:25;11.50;99.90
17385;DHT22;8810;48.680;8.894;2022-10-22T06:04:52;11.40;99.90
17385;DHT22;8810;48.680;8.894;2022-10-22T06:07:19;11.40;99.90
17385;DHT22;8810;48.680;8.894;2022-10-22T06:09:46;11.40;99.90
17385;DHT22;8810;48.680;8.894;2022-10-22T06:12:14;11.40;99.90
17385;DHT22;8810;48.680;8.894;2022-10-22T06:14:41;11.40;99.90
17385;DHT22;8810;48.680;8.894;2022-10-22T06:17:10;11.40;99.90
17385;DHT22;8810;48.680;8.894;2022-10-22T06:19:37;11.40;99.90
17385;DHT22;8810;48.680;8.894;2022-10-22T06:22:04;11.40;99.90
17385;DHT22;8810;48.680;8.894;2022-10-22T06:24:31;11.40;99.90
17385;DHT22;8810;48.680;8.894;2022-10-22T06:26:58;11.50;99.90
17385;DHT22;8810;48.680;8.894;2022-10-22T06:29:25;11.50;99.90
17385;DHT22;8810;48.680;8.894;2022-10-22T06:31:52;11.50;99.90
17385;DHT22;8810;48.680;8.894;2022-10-22T06:34:20;11.60;99.90
17385;DHT22;8810;48.680;8.894;2022-10-22T06:36:47;11.60;99.90
17385;DHT22;8810;48.680;8.894;2022-10-22T06:39:16;11.60;99.90
17385;DHT22;8810;48.680;8.894;2022-10-22T06:41:43;11.60;99.90
17385;DHT22;8810;48.680;8.894;2022-10-22T06:44:13;11.60;99.90
17385;DHT22;8810;48.680;8.894;2022-10-22T06:46:40;11.60;99.90
17385;DHT22;8810;48.680;8.894;2022-10-22T06:49:09;11.70;99.90
17385;DHT22;8810;48.680;8.894;2022-10-22T06:51:38;11.70;99.90
17385;DHT22;8810;48.680;8.894;2022-10-22T06:54:05;11.70;99.90
17385;DHT22;8810;48.680;8.894;2022-10-22T06:56:32;11.70;99.90
17385;DHT22;8810;48.680;8.894;2022-10-22T06:58:59;11.80;99.90
17385;DHT22;8810;48.680;8.894;2022-10-22T07:01:27;11.80;99.90
17385;DHT22;8810;48.680;8.894;2022-10-22T07:03:54;11.90;99.90
17385;DHT22;8810;48.680;8.894;2022-10-22T07:06:22;11.90;99.90
17385;DHT22;8810;48.680;8.894;2022-10-22T07:08:52;12.00;99.90
17385;DHT22;8810;48.680;8.894;2022-10-22T07:11:20;12.00;99.90
17385;DHT22;8810;48.680;8.894;2022-10-22T07:13:48;12.10;99.90
17385;DHT22;8810;48.680;8.894;2022-10-22T07:16:16;12.10;99.90
17385;DHT22;8810;48.680;8.894;2022-10-22T07:18:43;12.20;99.90
17385;DHT22;8810;48.680;8.894;2022-10-22T07:21:11;12.20;99.90
17385;DHT22;8810;48.680;8.894;2022-10-22T07:23:39;12.20;99.90
17385;DHT22;8810;48.680;8.894;2022-10-22T07:26:07;12.30;99.90
17385;DHT22;8810;48.680;8.894;2022-10-22T07:28:36;12.30;99.90
17385;DHT22;8810;48.680;8.894;2022-10-22T07:31:07;12.30;99.90
17385;DHT22;8810;48.680;8.894;2022-10-22T07:33:34;12.40;99.90
17385;DHT22;8810;48.680;8.894;2022-10-22T07:36:03;12.40;99.90
17385;DHT22;8810;48.680;8.894;2022-10-22T07:38:30;12.40;99.90
17385;DHT22;8810;48.680;8.894;2022-10-22T07:40:58;12.50;99.90
17385;DHT22;8810;48.680;8.894;2022-10-22T07:43:26;12.50;99.90
17385;DHT22;8810;48.680;8.894;2022-10-22T07:45:53;12.60;99.90
17385;DHT22;8810;48.680;8.894;2022-10-22T07:48:21;12.60;99.90
17385;DHT22;8810;48.680;8.894;2022-10-22T07:50:48;12.70;99.90
17385;DHT22;8810;48.680;8.894;2022-10-22T07:53:16;12.70;99.90
17385;DHT22;8810;48.680;8.894;2022-10-22T07:55:45;12.80;99.90
17385;DHT22;8810;48.680;8.894;2022-10-22T07:58:13;12.90;99.90
17385;DHT22;8810;48.680;8.894;2022-10-22T08:00:41;13.00;99.90
17385;DHT22;8810;48.680;8.894;2022-10-22T08:03:08;13.10;99.90
17385;DHT22;8810;48.680;8.894;2022-10-22T08:05:36;13.10;99.90
17385;DHT22;8810;48.680;8.894;2022-10-22T08:08:03;13.30;99.90
17385;DHT22;8810;48.680;8.894;2022-10-22T08:10:31;13.60;99.90
17385;DHT22;8810;48.680;8.894;2022-10-22T08:12:58;13.90;99.90
17385;DHT22;8810;48.680;8.894;2022-10-22T08:15:25;14.40;99.90
17385;DHT22;8810;48.680;8.894;2022-10-22T08:17:53;14.80;99.90
17385;DHT22;8810;48.680;8.894;2022-10-22T08:20:20;15.00;99.90
17385;DHT22;8810;48.680;8.894;2022-10-22T08:22:47;15.20;99.90
17385;DHT22;8810;48.680;8.894;2022-10-22T08:25:14;15.40;99.90
17385;DHT22;8810;48.680;8.894;2022-10-22T08:27:42;15.50;99.90
17385;DHT22;8810;48.680;8.894;2022-10-22T08:30:10;15.70;99.90
17385;DHT22;8810;48.680;8.894;2022-10-22T08:32:37;15.80;99.90
17385;DHT22;8810;48.680;8.894;2022-10-22T08:35:06;16.00;99.90
17385;DHT22;8810;48.680;8.894;2022-10-22T08:37:33;16.10;99.90
17385;DHT22;8810;48.680;8.894;2022-10-22T08:40:00;16.00;99.90
17385;DHT22;8810;48.680;8.894;2022-10-22T08:43:06;16.10;99.90
17385;DHT22;8810;48.680;8.894;2022-10-22T08:45:41;16.30;99.90
17385;DHT22;8810;48.680;8.894;2022-10-22T08:48:20;16.50;99.90
17385;DHT22;8810;48.680;8.894;2022-10-22T08:50:51;16.80;99.90
17385;DHT22;8810;48.680;8.894;2022-10-22T08:53:21;17.00;99.90
17385;DHT22;8810;48.680;8.894;2022-10-22T08:55:52;17.40;99.90
17385;DHT22;8810;48.680;8.894;2022-10-22T08:58:23;17.70;99.90
17385;DHT22;8810;48.680;8.894;2022-10-22T09:00:58;18.10;99.90
17385;DHT22;8810;48.680;8.894;2022-10-22T09:03:33;18.40;99.90
17385;DHT22;8810;48.680;8.894;2022-10-22T09:06:08;18.70;99.90
17385;DHT22;8810;48.680;8.894;2022-10-22T09:08:38;19.00;99.90
17385;DHT22;8810;48.680;8.894;2022-10-22T09:11:19;19.00;99.90
17385;DHT22;8810;48.680;8.894;2022-10-22T09:13:48;19.10;99.90
17385;DHT22;8810;48.680;8.894;2022-10-22T09:16:17;19.00;99.90
17385;DHT22;8810;48.680;8.894;2022-10-22T09:18:52;19.20;99.90
17385;DHT22;8810;48.680;8.894;2022-10-22T09:21:28;19.20;99.90
17385;DHT22;8810;48.680;8.894;2022-10-22T09:24:02;19.20;99.90
17385;DHT22;8810;48.680;8.894;2022-10-22T09:26:33;19.30;99.90
17385;DHT22;8810;48.680;8.894;2022-10-22T09:29:03;19.50;99.90
17385;DHT22;8810;48.680;8.894;2022-10-22T09:31:31;19.90;99.90
17385;DHT22;8810;48.680;8.894;2022-10-22T09:33:59;20.20;99.90
17385;DHT22;8810;48.680;8.894;2022-10-22T09:36:32;20.50;99.90
17385;DHT22;8810;48.680;8.894;2022-10-22T09:39:00;20.10;99.90
17385;DHT22;8810;48.680;8.894;2022-10-22T09:41:28;19.80;99.90
17385;DHT22;8810;48.680;8.894;2022-10-22T09:43:55;19.90;99.90
17385;DHT22;8810;48.680;8.894;2022-10-22T09:46:24;20.00;99.90
17385;DHT22;8810;48.680;8.894;2022-10-22T09:48:59;20.10;99.90
17385;DHT22;8810;48.680;8.894;2022-10-22T09:51:41;20.30;99.90
17385;DHT22;8810;48.680;8.894;2022-10-22T09:54:15;20.40;99.90
17385;DHT22;8810;48.680;8.894;2022-10-22T09:56:48;20.40;99.90
17385;DHT22;8810;48.680;8.894;2022-10-22T09:59:18;20.40;99.90
17385;DHT22;8810;48.680;8.894;2022-10-22T10:01:45;20.60;99.90
17385;DHT22;8810;48.680;8.894;2022-10-22T10:04:13;20.60;99.90
17385;DHT22;8810;48.680;8.894;2022-10-22T10:06:43;20.50;99.90
17385;DHT22;8810;48.680;8.894;2022-10-22T10:09:14;20.50;99.90
17385;DHT22;8810;48.680;8.894;2022-10-22T10:11:45;20.60;99.90
17385;DHT22;8810;48.680;8.894;2022-10-22T10:14:20;20.40;99.90
17385;DHT22;8810;48.680;8.894;2022-10-22T10:16:57;20.40;99.90
17385;DHT22;8810;48.680;8.894;2022-10-22T10:19:40;20.60;99.90
17385;DHT22;8810;48.680;8.894;2022-10-22T10:22:25;20.40;99.90
17385;DHT22;8810;48.680;8.894;2022-10-22T10:25:08;20.60;99.90
17385;DHT22;8810;48.680;8.894;2022-10-22T10:27:41;20.60;99.90
17385;DHT22;8810;48.680;8.894;2022-10-22T10:30:12;20.60;99.90
17385;DHT22;8810;48.680;8.894;2022-10-22T10:35:37;20.90;99.90
17385;DHT22;8810;48.680;8.894;2022-10-22T10:38:22;21.10;99.90
17385;DHT22;8810;48.680;8.894;2022-10-22T10:40:55;21.30;99.90
17385;DHT22;8810;48.680;8.894;2022-10-22T10:43:28;21.50;99.90
17385;DHT22;8810;48.680;8.894;2022-10-22T10:46:03;21.60;99.90
17385;DHT22;8810;48.680;8.894;2022-10-22T10:48:48;21.40;99.90
17385;DHT22;8810;48.680;8.894;2022-10-22T10:51:30;21.50;99.90
17385;DHT22;8810;48.680;8.894;2022-10-22T10:54:06;21.40;99.90
17385;DHT22;8810;48.680;8.894;2022-10-22T10:56:40;21.40;99.90
17385;DHT22;8810;48.680;8.894;2022-10-22T10:59:15;21.40;99.90
17385;DHT22;8810;48.680;8.894;2022-10-22T11:01:52;21.70;99.90
17385;DHT22;8810;48.680;8.894;2022-10-22T11:05:03;21.80;99.90
17385;DHT22;8810;48.680;8.894;2022-10-22T11:07:37;21.70;99.90
17385;DHT22;8810;48.680;8.894;2022-10-22T11:10:15;21.60;99.90
17385;DHT22;8810;48.680;8.894;2022-10-22T11:12:46;21.80;99.90
17385;DHT22;8810;48.680;8.894;2022-10-22T11:15:24;21.80;99.90
17385;DHT22;8810;48.680;8.894;2022-10-22T11:17:53;22.10;99.90
17385;DHT22;8810;48.680;8.894;2022-10-22T11:20:27;22.40;99.90
17385;DHT22;8810;48.680;8.894;2022-10-22T11:23:00;22.10;99.90
17385;DHT22;8810;48.680;8.894;2022-10-22T11:25:33;21.90;99.90
17385;DHT22;8810;48.680;8.894;2022-10-22T11:28:09;21.80;99.90
17385;DHT22;8810;48.680;8.894;2022-10-22T11:30:40;22.00;99.90
17385;DHT22;8810;48.680;8.894;2022-10-22T11:33:14;22.30;99.90
17385;DHT22;8810;48.680;8.894;2022-10-22T11:35:43;22.50;99.90
17385;DHT22;8810;48.680;8.894;2022-10-22T11:38:14;22.80;99.90
17385;DHT22;8810;48.680;8.894;2022-10-22T11:40:46;23.10;99.90
17385;DHT22;8810;48.680;8.894;2022-10-22T11:43:26;23.10;99.90
17385;DHT22;8810;48.680;8.894;2022-10-22T11:46:00;23.10;99.90
17385;DHT22;8810;48.680;8.894;2022-10-22T11:48:33;22.60;99.90
17385;DHT22;8810;48.680;8.894;2022-10-22T11:51:01;22.60;99.90
17385;DHT22;8810;48.680;8.894;2022-10-22T11:53:33;22.50;99.90
17385;DHT22;8810;48.680;8.894;2022-10-22T11:56:21;22.00;99.90
17385;DHT22;8810;48.680;8.894;2022-10-22T11:58:49;22.00;99.90
17385;DHT22;8810;48.680;8.894;2022-10-22T12:01:28;22.10;99.90
17385;DHT22;8810;48.680;8.894;2022-10-22T12:04:15;22.40;99.90
17385;DHT22;8810;48.680;8.894;2022-10-22T12:06:53;22.90;99.90
17385;DHT22;8810;48.680;8.894;2022-10-22T12:09:22;23.20;99.90
17385;DHT22;8810;48.680;8.894;2022-10-22T12:11:52;23.50;99.90
17385;DHT22;8810;48.680;8.894;2022-10-22T12:14:22;23.10;99.90
17385;DHT22;8810;48.680;8.894;2022-10-22T12:16:53;23.00;99.90
17385;DHT22;8810;48.680;8.894;2022-10-22T12:19:27;23.00;99.90
17385;DHT22;8810;48.680;8.894;2022-10-22T12:21:58;23.10;99.90
17385;DHT22;8810;48.680;8.894;2022-10-22T12:24:29;23.00;99.90
17385;DHT22;8810;48.680;8.894;2022-10-22T12:26:58;22.80;99.90
17385;DHT22;8810;48.680;8.894;2022-10-22T12:29:25;22.80;99.90
17385;DHT22;8810;48.680;8.894;2022-10-22T12:31:53;22.90;99.90
17385;DHT22;8810;48.680;8.894;2022-10-22T12:34:22;22.60;99.90
17385;DHT22;8810;48.680;8.894;2022-10-22T12:36:52;22.20;99.90
17385;DHT22;8810;48.680;8.894;2022-10-22T12:39:20;22.00;99.90
17385;DHT22;8810;48.680;8.894;2022-10-22T12:41:48;21.70;99.90
17385;DHT22;8810;48.680;8.894;2022-10-22T12:44:16;21.40;99.90
17385;DHT22;8810;48.680;8.894;2022-10-22T12:46:45;21.20;99.90
17385;DHT22;8810;48.680;8.894;2022-10-22T12:49:16;21.20;99.90
17385;DHT22;8810;48.680;8.894;2022-10-22T12:51:44;21.40;99.90
17385;DHT22;8810;48.680;8.894;2022-10-22T12:54:23;21.80;99.90
17385;DHT22;8810;48.680;8.894;2022-10-22T12:56:51;22.30;99.90
17385;DHT22;8810;48.680;8.894;2022-10-22T12:59:22;22.70;99.90
17385;DHT22;8810;48.680;8.894;2022-10-22T13:01:51;23.00;99.90
17385;DHT22;8810;48.680;8.894;2022-10-22T13:04:21;23.30;99.90
17385;DHT22;8810;48.680;8.894;2022-10-22T13:07:05;23.30;99.90
17385;DHT22;8810;48.680;8.894;2022-10-22T13:09:37;23.40;99.90
17385;DHT22;8810;48.680;8.894;2022-10-22T13:12:06;23.20;99.90
17385;DHT22;8810;48.680;8.894;2022-10-22T13:14:37;23.20;99.90
17385;DHT22;8810;48.680;8.894;2022-10-22T13:17:06;23.30;99.90
17385;DHT22;8810;48.680;8.894;2022-10-22T13:19:46;23.10;99.90
17385;DHT22;8810;48.680;8.894;2022-10-22T13:22:38;23.00;99.90
17385;DHT22;8810;48.680;8.894;2022-10-22T13:25:21;23.00;99.90
17385;DHT22;8810;48.680;8.894;2022-10-22T13:27:50;23.00;99.90
17385;DHT22;8810;48.680;8.894;2022-10-22T13:30:21;22.60;99.90
17385;DHT22;8810;48.680;8.894;2022-10-22T13:32:50;22.60;99.90
17385;DHT22;8810;48.680;8.894;2022-10-22T13:35:21;22.70;99.90
17385;DHT22;8810;48.680;8.894;2022-10-22T13:37:48;22.60;99.90
17385;DHT22;8810;48.680;8.894;2022-10-22T13:40:16;22.70;99.90
17385;DHT22;8810;48.680;8.894;2022-10-22T13:42:43;22.70;99.90
17385;DHT22;8810;48.680;8.894;2022-10-22T13:45:11;22.90;99.90
17385;DHT22;8810;48.680;8.894;2022-10-22T13:47:41;22.90;99.90
17385;DHT22;8810;48.680;8.894;2022-10-22T13:50:12;22.80;99.90
17385;DHT22;8810;48.680;8.894;2022-10-22T13:52:42;22.90;99.90
17385;DHT22;8810;48.680;8.894;2022-10-22T13:55:15;22.80;99.90
17385;DHT22;8810;48.680;8.894;2022-10-22T13:57:43;22.60;99.90
17385;DHT22;8810;48.680;8.894;2022-10-22T14:00:12;22.50;99.90
17385;DHT22;8810;48.680;8.894;2022-10-22T14:02:41;22.60;99.90
17385;DHT22;8810;48.680;8.894;2022-10-22T14:05:09;22.60;99.90
17385;DHT22;8810;48.680;8.894;2022-10-22T14:07:37;22.70;99.90
17385;DHT22;8810;48.680;8.894;2022-10-22T14:10:13;22.80;99.90
17385;DHT22;8810;48.680;8.894;2022-10-22T14:12:40;22.80;99.90
17385;DHT22;8810;48.680;8.894;2022-10-22T14:15:09;22.80;99.90
17385;DHT22;8810;48.680;8.894;2022-10-22T14:17:38;22.80;99.90
17385;DHT22;8810;48.680;8.894;2022-10-22T14:20:12;22.80;99.90
17385;DHT22;8810;48.680;8.894;2022-10-22T14:22:39;22.70;99.90
17385;DHT22;8810;48.680;8.894;2022-10-22T14:25:09;22.70;99.90
17385;DHT22;8810;48.680;8.894;2022-10-22T14:27:38;22.60;99.90
17385;DHT22;8810;48.680;8.894;2022-10-22T14:30:05;22.50;99.90
17385;DHT22;8810;48.680;8.894;2022-10-22T14:32:33;22.50;99.90
17385;DHT22;8810;48.680;8.894;2022-10-22T14:34:59;22.50;99.90
17385;DHT22;8810;48.680;8.894;2022-10-22T14:37:28;22.30;99.90
17385;DHT22;8810;48.680;8.894;2022-10-22T14:39:54;22.30;99.90
17385;DHT22;8810;48.680;8.894;2022-10-22T14:42:26;22.30;99.90
17385;DHT22;8810;48.680;8.894;2022-10-22T14:44:53;22.10;99.90
17385;DHT22;8810;48.680;8.894;2022-10-22T14:47:20;22.00;99.90
17385;DHT22;8810;48.680;8.894;2022-10-22T14:49:47;21.90;99.90
17385;DHT22;8810;48.680;8.894;2022-10-22T14:52:13;21.90;99.90
17385;DHT22;8810;48.680;8.894;2022-10-22T14:54:42;21.90;99.90
17385;DHT22;8810;48.680;8.894;2022-10-22T14:57:09;21.80;99.90
17385;DHT22;8810;48.680;8.894;2022-10-22T14:59:39;21.80;99.90
17385;DHT22;8810;48.680;8.894;2022-10-22T15:02:05;21.80;99.90
17385;DHT22;8810;48.680;8.894;2022-10-22T15:04:34;21.70;99.90
17385;DHT22;8810;48.680;8.894;2022-10-22T15:07:02;21.70;99.90
17385;DHT22;8810;48.680;8.894;2022-10-22T15:09:29;21.60;99.90
17385;DHT22;8810;48.680;8.894;2022-10-22T15:11:57;21.60;99.90
17385;DHT22;8810;48.680;8.894;2022-10-22T15:14:24;21.50;99.90
17385;DHT22;8810;48.680;8.894;2022-10-22T15:16:51;21.50;99.90
17385;DHT22;8810;48.680;8.894;2022-10-22T15:19:17;21.40;99.90
17385;DHT22;8810;48.680;8.894;2022-10-22T15:21:44;21.30;99.90
17385;DHT22;8810;48.680;8.894;2022-10-22T15:24:11;21.20;99.90
17385;DHT22;8810;48.680;8.894;2022-10-22T15:26:38;21.10;99.90
17385;DHT22;8810;48.680;8.894;2022-10-22T15:29:06;21.00;99.90
17385;DHT22;8810;48.680;8.894;2022-10-22T15:31:47;20.90;99.90
17385;DHT22;8810;48.680;8.894;2022-10-22T15:34:19;20.80;99.90
17385;DHT22;8810;48.680;8.894;2022-10-22T15:36:46;20.60;99.90
17385;DHT22;8810;48.680;8.894;2022-10-22T15:39:13;20.50;99.90
17385;DHT22;8810;48.680;8.894;2022-10-22T15:41:39;20.30;99.90
17385;DHT22;8810;48.680;8.894;2022-10-22T15:44:14;20.20;99.90
17385;DHT22;8810;48.680;8.894;2022-10-22T15:46:40;20.00;99.90
17385;DHT22;8810;48.680;8.894;2022-10-22T15:49:07;19.80;99.90
17385;DHT22;8810;48.680;8.894;2022-10-22T15:51:34;19.50;99.90
17385;DHT22;8810;48.680;8.894;2022-10-22T15:54:01;19.30;99.90
17385;DHT22;8810;48.680;8.894;2022-10-22T15:56:28;19.10;99.90
17385;DHT22;8810;48.680;8.894;2022-10-22T15:58:58;18.90;99.90
17385;DHT22;8810;48.680;8.894;2022-10-22T16:01:29;18.70;99.90
17385;DHT22;8810;48.680;8.894;2022-10-22T16:03:57;18.50;99.90
17385;DHT22;8810;48.680;8.894;2022-10-22T16:06:28;18.40;99.90
17385;DHT22;8810;48.680;8.894;2022-10-22T16:08:57;18.30;99.90